Time;durP1;ratioP1;P1;durP2;ratioP2;P2;SDS_P1;SDS_P2;PMS_P1;PMS_P2;Temp;Humidity;BMP_temperature;BMP_pressure;BME280_temperature;BME280_humidity;BME280_pressure;Samples;Min_cycle;Max_cycle;Signal;HPM_P1;HPM_P2
2022/01/28 00:03:01;;;;;;;18.17;2.42;;;2.80;99.90;;;;;;5112401;28;20477;-52
2022/01/28 00:05:27;;;;;;;24.30;3.20;;;2.90;99.90;;;;;;5112335;28;20458;-51
2022/01/28 00:07:54;;;;;;;17.80;1.48;;;2.80;99.90;;;;;;5112139;28;20516;-49
2022/01/28 00:10:22;;;;;;;19.73;2.63;;;2.80;99.90;;;;;;5112432;28;20393;-50
2022/01/28 00:13:36;;;;;;;16.55;2.50;;;2.80;99.90;;;;;;5112258;28;20047;-49
2022/01/28 00:15:46;;;;;;;17.52;1.98;;;2.90;99.90;;;;;;5094188;28;20039;-47
2022/01/28 00:39:42;;;;;;;15.43;1.48;;;3.30;99.90;;;;;;5110950;28;20556;-47
2022/01/28 00:42:07;;;;;;;14.65;1.58;;;4.30;99.90;;;;;;5111923;28;20036;-47
2022/01/28 00:44:33;;;;;;;27.55;2.38;;;3.30;99.90;;;;;;5111734;28;20507;-47
2022/01/28 00:46:59;;;;;;;16.85;3.40;;;3.20;99.90;;;;;;5111800;28;20504;-49
2022/01/28 00:49:25;;;;;;;21.38;2.25;;;3.20;99.90;;;;;;5111622;28;20038;-50
2022/01/28 00:51:50;;;;;;;20.85;2.33;;;3.10;99.90;;;;;;5092810;28;20043;-48
2022/01/28 00:54:17;;;;;;;25.17;2.78;;;3.10;99.90;;;;;;5111454;28;20036;-48
2022/01/28 00:56:44;;;;;;;22.95;2.63;;;3.10;99.90;;;;;;5111556;28;20379;-47
2022/01/28 00:59:10;;;;;;;27.50;3.97;;;3.20;99.90;;;;;;5111611;28;20039;-49
2022/01/28 01:01:37;;;;;;;23.67;2.75;;;3.20;99.90;;;;;;5093914;28;20070;-50
2022/01/28 01:04:04;;;;;;;24.35;3.22;;;3.30;99.90;;;;;;5111281;28;20043;-47
2022/01/28 01:06:31;;;;;;;27.40;3.50;;;3.10;99.90;;;;;;5092942;28;20055;-48
2022/01/28 01:08:57;;;;;;;26.15;2.83;;;3.10;99.90;;;;;;5111059;28;20071;-49
2022/01/28 01:11:25;;;;;;;21.65;2.22;;;3.00;99.90;;;;;;5111045;28;20043;-50
2022/01/28 01:13:51;;;;;;;19.77;2.22;;;3.20;99.90;;;;;;5092321;28;20051;-51
2022/01/28 01:17:13;;;;;;;23.08;2.78;;;4.30;99.90;;;;;;5111140;28;20043;-52
2022/01/28 01:21:39;;;;;;;21.58;2.83;;;4.60;99.90;;;;;;5111119;28;20043;-47
2022/01/28 01:24:07;;;;;;;19.10;2.65;;;3.60;99.90;;;;;;5110704;28;20047;-50
2022/01/28 01:26:37;;;;;;;21.98;2.50;;;3.80;99.90;;;;;;5110764;28;20057;-50
2022/01/28 01:29:10;;;;;;;19.63;2.72;;;4.70;99.90;;;;;;5111023;28;20079;-51
2022/01/28 01:31:39;;;;;;;28.10;2.30;;;3.60;99.90;;;;;;5111070;28;20039;-48
2022/01/28 01:34:13;;;;;;;21.60;3.55;;;3.50;99.90;;;;;;5110394;28;20393;-50
2022/01/28 01:36:39;;;;;;;26.80;2.35;;;3.40;99.90;;;;;;5110530;28;20429;-51
2022/01/28 01:39:07;;;;;;;26.52;2.53;;;3.20;99.90;;;;;;5109855;28;20035;-49
2022/01/28 01:41:38;;;;;;;17.52;2.00;;;3.10;99.90;;;;;;5109921;28;20485;-51
2022/01/28 01:44:09;;;;;;;19.52;2.45;;;2.90;99.90;;;;;;5110415;28;20047;-50
2022/01/28 01:54:46;;;;;;;19.27;1.17;;;2.70;99.90;;;;;;5092226;28;20075;-48
2022/01/28 01:57:13;;;;;;;23.08;1.75;;;2.90;99.90;;;;;;5110563;28;20806;-48
2022/01/28 01:59:40;;;;;;;20.65;2.92;;;3.00;99.90;;;;;;5110151;28;20048;-52
2022/01/28 02:02:07;;;;;;;24.85;2.13;;;3.00;99.90;;;;;;5110068;28;20101;-48
2022/01/28 02:04:32;;;;;;;23.50;4.38;;;3.10;99.90;;;;;;5110446;28;20036;-50
2022/01/28 02:07:00;;;;;;;18.50;3.63;;;3.00;99.90;;;;;;5110534;28;20385;-47
2022/01/28 02:09:26;;;;;;;28.52;3.25;;;5.40;99.90;;;;;;5110188;28;20042;-46
2022/01/28 02:11:52;;;;;;;16.52;2.15;;;3.00;99.90;;;;;;5092034;28;20044;-50
2022/01/28 02:14:17;;;;;;;28.00;2.92;;;3.10;99.90;;;;;;5110438;28;20388;-49
2022/01/28 02:16:43;;;;;;;26.17;4.05;;;3.10;99.90;;;;;;5110353;28;20481;-50
2022/01/28 02:19:09;;;;;;;31.48;3.70;;;3.30;99.90;;;;;;5110194;28;20112;-51
2022/01/28 02:21:49;;;;;;;53.17;5.45;;;3.40;99.90;;;;;;5110164;28;20124;-48
2022/01/28 02:24:18;;;;;;;23.85;2.42;;;3.50;99.90;;;;;;5110330;28;20046;-47
2022/01/28 02:26:44;;;;;;;28.27;3.03;;;3.60;99.90;;;;;;5110487;28;20070;-50
2022/01/28 02:29:13;;;;;;;18.33;3.40;;;3.70;99.90;;;;;;5110306;28;20044;-52
2022/01/28 02:31:40;;;;;;;23.02;2.97;;;5.20;99.90;;;;;;5110557;28;20047;-49
2022/01/28 02:34:10;;;;;;;26.63;4.10;;;3.70;99.90;;;;;;5110291;28;20044;-48
2022/01/28 02:36:36;;;;;;;26.45;2.97;;;3.90;99.90;;;;;;5110534;28;20110;-48
2022/01/28 02:39:03;;;;;;;22.23;2.95;;;3.90;99.90;;;;;;5109613;28;20050;-48
2022/01/28 02:41:33;;;;;;;21.30;3.35;;;3.90;99.90;;;;;;5110406;28;20079;-50
2022/01/28 02:44:14;;;;;;;35.13;4.10;;;3.90;99.90;;;;;;5110393;28;20445;-51
2022/01/28 02:46:52;;;;;;;30.42;4.50;;;4.80;99.90;;;;;;5110483;28;20083;-50
2022/01/28 02:49:18;;;;;;;31.80;2.47;;;4.00;99.90;;;;;;5110123;28;20378;-47
2022/01/28 02:51:43;;;;;;;24.55;2.63;;;4.00;99.90;;;;;;5109859;28;20054;-49
2022/01/28 02:54:15;;;;;;;31.10;4.88;;;4.00;99.90;;;;;;5112580;28;20480;-50
2022/01/28 02:56:49;;;;;;;37.40;4.50;;;4.00;99.90;;;;;;5113917;28;20388;-49
2022/01/28 02:59:14;;;;;;;27.42;3.88;;;3.90;99.90;;;;;;5113599;28;20104;-49
2022/01/28 03:01:40;;;;;;;28.13;4.05;;;3.90;99.90;;;;;;5113249;28;20051;-47
2022/01/28 03:04:08;;;;;;;39.10;4.65;;;3.80;99.90;;;;;;5113051;28;20057;-47
2022/01/28 03:06:34;;;;;;;25.05;2.85;;;3.70;99.90;;;;;;5113481;28;20047;-48
2022/01/28 03:09:11;;;;;;;29.30;3.40;;;3.60;99.90;;;;;;5113347;28;20118;-49
2022/01/28 03:16:51;;;;;;;21.58;2.97;;;3.70;99.90;;;;;;5113477;28;20047;-49
2022/01/28 03:19:20;;;;;;;29.30;3.63;;;4.80;99.90;;;;;;5113508;28;20035;-51
2022/01/28 03:21:54;;;;;;;27.20;4.65;;;3.90;99.90;;;;;;5113558;28;20108;-49
2022/01/28 03:24:21;;;;;;;24.67;3.53;;;3.90;99.90;;;;;;5113154;28;20063;-47
2022/01/28 03:26:50;;;;;;;29.77;4.03;;;4.00;99.90;;;;;;5112845;28;20062;-49
2022/01/28 03:29:16;;;;;;;32.72;4.90;;;4.10;99.90;;;;;;5112881;28;20044;-51
2022/01/28 03:31:42;;;;;;;25.02;4.10;;;4.10;99.90;;;;;;5112854;28;20075;-50
2022/01/28 03:34:07;;;;;;;31.00;4.10;;;4.10;99.90;;;;;;5112890;28;20050;-48
2022/01/28 03:36:33;;;;;;;19.90;3.15;;;4.10;99.90;;;;;;5094471;28;20392;-48
2022/01/28 03:38:59;;;;;;;22.58;4.13;;;4.10;99.90;;;;;;5112269;28;20474;-47
2022/01/28 03:41:25;;;;;;;31.35;6.82;;;4.00;99.90;;;;;;5112549;28;20046;-48
2022/01/28 03:43:57;;;;;;;39.75;4.45;;;4.20;99.90;;;;;;5112958;28;20051;-52
2022/01/28 03:46:25;;;;;;;26.27;3.50;;;4.20;99.90;;;;;;5112355;28;20481;-50
2022/01/28 03:48:51;;;;;;;36.35;4.30;;;4.20;99.90;;;;;;5113232;28;20124;-48
2022/01/28 03:51:16;;;;;;;26.50;3.17;;;4.10;99.90;;;;;;5112584;28;20081;-47
2022/01/28 03:53:42;;;;;;;28.75;4.68;;;4.20;99.90;;;;;;5112805;28;20456;-50
2022/01/28 03:56:08;;;;;;;21.88;3.10;;;4.20;99.90;;;;;;5094140;28;20043;-50
2022/01/28 03:58:33;;;;;;;21.63;2.83;;;4.30;99.90;;;;;;5112719;28;20047;-49
2022/01/28 04:00:59;;;;;;;26.52;3.05;;;4.20;99.90;;;;;;5112318;28;20177;-47
2022/01/28 04:11:29;;;;;;;18.92;2.90;;;4.20;99.90;;;;;;5112218;28;20399;-48
2022/01/28 04:14:07;;;;;;;23.38;3.83;;;4.20;99.90;;;;;;5112539;28;20092;-51
2022/01/28 04:17:19;;;;;;;27.85;4.63;;;4.90;99.90;;;;;;5112014;28;20075;-50
2022/01/28 04:19:19;;;;;;;28.25;2.78;;;4.20;99.90;;;;;;5111896;28;20050;-49
2022/01/28 04:21:45;;;;;;;21.98;3.08;;;4.20;99.90;;;;;;5112287;28;20046;-50
2022/01/28 04:24:11;;;;;;;31.10;3.63;;;4.20;99.90;;;;;;5112267;28;20481;-51
2022/01/28 04:26:36;;;;;;;27.75;4.03;;;4.20;99.90;;;;;;5112142;28;20084;-51
2022/01/28 04:29:02;;;;;;;19.88;2.08;;;4.30;99.90;;;;;;5112149;28;20070;-49
2022/01/28 04:31:28;;;;;;;21.13;3.05;;;4.20;99.90;;;;;;5111937;28;20043;-49
2022/01/28 04:33:55;;;;;;;13.00;2.25;;;4.20;99.90;;;;;;5112510;28;20046;-49
2022/01/28 04:36:23;;;;;;;21.35;2.22;;;4.20;99.90;;;;;;5112219;28;20039;-48
2022/01/28 04:39:37;;;;;;;13.10;1.60;;;4.20;99.90;;;;;;5093228;28;20046;-49
2022/01/28 04:41:59;;;;;;;21.85;2.78;;;4.20;99.90;;;;;;5103576;28;20401;-47
2022/01/28 04:44:35;;;;;;;14.57;2.47;;;4.80;99.90;;;;;;5112087;28;20031;-48
2022/01/28 04:47:09;;;;;;;18.40;1.73;;;4.20;99.90;;;;;;5112178;28;20088;-51
2022/01/28 04:57:38;;;;;;;26.77;2.78;;;4.20;99.90;;;;;;5111607;28;20047;-47
2022/01/28 05:08:02;;;;;;;20.02;2.33;;;4.20;99.90;;;;;;5111978;28;20101;-49
2022/01/28 05:15:53;;;;;;;19.85;4.47;;;4.10;99.90;;;;;;5110350;28;20043;-47
2022/01/28 05:26:51;;;;;;;23.17;3.55;;;4.00;99.90;;;;;;5110647;28;20099;-46
2022/01/28 05:29:17;;;;;;;28.10;3.03;;;3.80;99.90;;;;;;5110528;28;20047;-43
2022/01/28 05:31:42;;;;;;;25.42;2.55;;;3.60;99.90;;;;;;5110188;28;20039;-45
2022/01/28 05:34:08;;;;;;;28.70;5.32;;;3.50;99.90;;;;;;5110426;28;20040;-45
2022/01/28 05:36:34;;;;;;;25.67;3.70;;;3.80;99.90;;;;;;5110774;28;20097;-43
2022/01/28 05:39:00;;;;;;;32.08;3.17;;;3.20;99.90;;;;;;5110285;28;20119;-43
2022/01/28 05:41:26;;;;;;;21.75;3.13;;;3.20;99.90;;;;;;5109843;28;20112;-42
2022/01/28 05:43:51;;;;;;;19.65;3.38;;;3.20;99.90;;;;;;5110246;28;20062;-43
2022/01/28 05:46:20;;;;;;;30.88;3.35;;;3.20;99.90;;;;;;5109682;28;20043;-43
2022/01/28 05:48:46;;;;;;;37.97;4.88;;;3.20;99.90;;;;;;5110101;28;20442;-43
2022/01/28 05:51:12;;;;;;;21.10;2.28;;;3.30;99.90;;;;;;5109783;28;20036;-44
2022/01/28 05:53:38;;;;;;;29.42;3.60;;;3.30;99.90;;;;;;5110004;28;20042;-43
2022/01/28 05:56:04;;;;;;;24.60;2.55;;;3.30;99.90;;;;;;5110184;28;20043;-43
2022/01/28 05:58:29;;;;;;;23.73;2.95;;;3.30;99.90;;;;;;5109888;28;20047;-47
2022/01/28 06:00:55;;;;;;;30.35;3.72;;;3.40;99.90;;;;;;5110542;28;20038;-45
2022/01/28 06:03:21;;;;;;;23.75;3.17;;;3.40;99.90;;;;;;5110946;28;20050;-45
2022/01/28 06:05:48;;;;;;;26.48;3.00;;;3.50;99.90;;;;;;5110076;28;20074;-51
2022/01/28 06:08:17;;;;;;;23.15;3.53;;;3.60;99.90;;;;;;5093309;28;20078;-46
2022/01/28 06:10:42;;;;;;;24.00;2.90;;;3.70;99.90;;;;;;5109955;28;20116;-45
2022/01/28 06:13:11;;;;;;;30.80;5.10;;;3.70;99.90;;;;;;5110314;28;20042;-47
2022/01/28 06:15:40;;;;;;;37.03;3.78;;;3.70;99.90;;;;;;5110274;28;20032;-59
2022/01/28 06:18:06;;;;;;;22.08;3.10;;;3.80;99.90;;;;;;5110637;28;20051;-58
2022/01/28 06:20:32;;;;;;;15.32;2.78;;;3.80;99.90;;;;;;5110108;28;20036;-58
2022/01/28 06:22:58;;;;;;;29.08;4.75;;;3.70;99.90;;;;;;5109859;28;20062;-58
2022/01/28 06:25:23;;;;;;;24.80;3.20;;;3.80;99.90;;;;;;5092015;28;20114;-58
2022/01/28 06:27:49;;;;;;;30.20;3.10;;;3.70;99.90;;;;;;5110943;28;20117;-58
2022/01/28 06:30:16;;;;;;;25.48;3.15;;;3.70;99.90;;;;;;5114357;28;20054;-58
2022/01/28 06:32:43;;;;;;;21.80;3.35;;;3.60;99.90;;;;;;5114244;28;20050;-58
2022/01/28 06:35:09;;;;;;;32.03;3.47;;;3.50;99.90;;;;;;5114634;28;20054;-58
2022/01/28 06:37:37;;;;;;;31.88;4.18;;;4.80;99.90;;;;;;5114232;28;20039;-58
2022/01/28 06:40:09;;;;;;;22.80;3.55;;;3.60;99.90;;;;;;5095349;28;20817;-58
2022/01/28 06:42:34;;;;;;;21.95;3.08;;;3.60;99.90;;;;;;5095267;28;20043;-58
2022/01/28 06:45:00;;;;;;;28.95;3.72;;;3.50;99.90;;;;;;5113885;28;20048;-58
2022/01/28 06:47:26;;;;;;;28.40;3.95;;;3.40;99.90;;;;;;5114076;28;20068;-58
2022/01/28 06:49:52;;;;;;;21.92;2.58;;;3.30;99.90;;;;;;5113925;28;20061;-58
2022/01/28 06:52:18;;;;;;;17.40;3.05;;;3.20;99.90;;;;;;5113830;28;20439;-58
2022/01/28 06:54:43;;;;;;;29.10;4.45;;;3.00;99.90;;;;;;5095150;28;20088;-58
2022/01/28 06:57:09;;;;;;;22.67;3.15;;;2.90;99.90;;;;;;5113580;28;20039;-58
2022/01/28 06:59:35;;;;;;;23.65;3.38;;;2.90;99.90;;;;;;5078237;28;20051;-57
2022/01/28 07:02:00;;;;;;;24.08;3.10;;;2.80;99.90;;;;;;5113816;28;20054;-57
2022/01/28 07:04:26;;;;;;;27.92;3.83;;;2.80;99.90;;;;;;5113471;28;20039;-58
2022/01/28 07:06:52;;;;;;;27.42;3.53;;;2.70;99.90;;;;;;5113169;28;20039;-58
2022/01/28 07:09:18;;;;;;;26.80;3.45;;;2.70;99.90;;;;;;5113444;28;20047;-58
2022/01/28 07:11:43;;;;;;;30.25;4.38;;;2.60;99.90;;;;;;5113405;28;20051;-58
2022/01/28 07:14:10;;;;;;;25.35;3.30;;;2.60;99.90;;;;;;5113450;28;20084;-57
2022/01/28 07:16:36;;;;;;;19.65;2.97;;;2.60;99.90;;;;;;5113443;28;20576;-58
2022/01/28 07:19:03;;;;;;;28.80;3.13;;;2.50;99.90;;;;;;5095098;28;20070;-58
2022/01/28 07:21:28;;;;;;;36.17;6.15;;;2.40;99.90;;;;;;5113309;28;20441;-58
2022/01/28 07:23:54;;;;;;;23.13;2.63;;;2.40;99.90;;;;;;5095047;28;20098;-58
2022/01/28 07:26:20;;;;;;;26.40;3.22;;;2.50;99.90;;;;;;5113580;28;20043;-58
2022/01/28 07:28:47;;;;;;;30.83;3.60;;;2.40;99.90;;;;;;5094516;28;20051;-58
2022/01/28 07:31:15;;;;;;;19.23;2.92;;;2.60;99.90;;;;;;5113258;28;20059;-58
2022/01/28 07:33:42;;;;;;;28.92;4.18;;;2.70;99.90;;;;;;5094678;28;20083;-58
2022/01/28 07:36:08;;;;;;;26.33;3.30;;;2.80;99.90;;;;;;5113161;28;20100;-58
2022/01/28 07:38:33;;;;;;;25.30;3.25;;;2.90;99.90;;;;;;5112354;28;20059;-58
2022/01/28 07:41:01;;;;;;;25.08;3.15;;;2.90;99.90;;;;;;5111782;28;20050;-58
2022/01/28 07:43:27;;;;;;;21.48;3.65;;;2.90;99.90;;;;;;5113032;28;20424;-58
2022/01/28 07:45:52;;;;;;;30.48;3.25;;;2.90;99.90;;;;;;5112853;28;20051;-58
2022/01/28 07:48:18;;;;;;;21.60;5.47;;;2.90;99.90;;;;;;5094565;28;20040;-58
2022/01/28 07:50:44;;;;;;;25.92;2.85;;;2.90;99.90;;;;;;5094409;28;20047;-57
2022/01/28 07:53:14;;;;;;;29.50;3.83;;;2.90;99.90;;;;;;5093885;28;20049;-58
2022/01/28 07:55:40;;;;;;;31.52;3.28;;;2.90;99.90;;;;;;5112543;28;20147;-58
2022/01/28 07:58:05;;;;;;;18.23;3.05;;;2.90;99.90;;;;;;5112314;28;20122;-57
2022/01/28 08:00:31;;;;;;;27.33;3.80;;;2.90;99.90;;;;;;5112959;28;20042;-57
2022/01/28 08:02:56;;;;;;;21.83;2.13;;;3.00;99.90;;;;;;5112588;28;20051;-58
2022/01/28 08:05:22;;;;;;;23.58;2.97;;;3.00;99.90;;;;;;5112854;28;20050;-57
2022/01/28 08:07:48;;;;;;;19.00;2.67;;;2.70;99.90;;;;;;5093321;28;20047;-58
2022/01/28 08:10:17;;;;;;;23.92;3.58;;;3.00;99.90;;;;;;5112222;28;20043;-58
2022/01/28 08:12:49;;;;;;;29.75;5.38;;;3.10;99.90;;;;;;5112117;28;20048;-58
2022/01/28 08:15:16;;;;;;;22.42;4.63;;;3.10;99.90;;;;;;5093656;28;20047;-58
2022/01/28 08:17:42;;;;;;;23.50;2.63;;;3.10;99.90;;;;;;5112047;28;20099;-58
2022/01/28 08:20:08;;;;;;;22.00;2.50;;;3.20;99.90;;;;;;5112048;28;20047;-58
2022/01/28 08:22:44;;;;;;;30.00;2.90;;;3.30;99.90;;;;;;5112082;28;20043;-58
2022/01/28 08:25:09;;;;;;;24.50;2.75;;;3.40;99.90;;;;;;5111768;28;20055;-58
2022/01/28 08:27:35;;;;;;;28.08;3.72;;;3.50;99.90;;;;;;5111749;28;20051;-58
2022/01/28 08:30:01;;;;;;;24.30;3.22;;;4.00;99.90;;;;;;5093252;28;20043;-58
2022/01/28 08:32:27;;;;;;;37.83;3.75;;;3.70;99.90;;;;;;5093506;28;20050;-58
2022/01/28 08:34:54;;;;;;;23.67;3.28;;;3.70;99.90;;;;;;5111246;28;20112;-57
2022/01/28 08:37:19;;;;;;;20.77;2.30;;;3.70;99.90;;;;;;5111736;28;20043;-57
2022/01/28 08:39:45;;;;;;;27.65;4.15;;;3.70;99.90;;;;;;5111626;28;20039;-58
2022/01/28 08:42:13;;;;;;;29.60;4.07;;;3.60;99.90;;;;;;5111243;28;20378;-58
2022/01/28 08:44:38;;;;;;;28.42;3.10;;;3.60;99.90;;;;;;5111647;28;20144;-58
2022/01/28 08:47:04;;;;;;;30.27;5.95;;;3.50;99.90;;;;;;5111332;28;20499;-58
2022/01/28 08:49:30;;;;;;;23.25;3.35;;;3.40;99.90;;;;;;5111389;28;20052;-57
2022/01/28 08:51:56;;;;;;;21.88;3.58;;;3.40;99.90;;;;;;5111283;28;20047;-57
2022/01/28 08:54:21;;;;;;;25.63;3.20;;;3.40;99.90;;;;;;5111439;28;20075;-57
2022/01/28 08:56:47;;;;;;;27.88;3.67;;;3.40;99.90;;;;;;5093134;28;20043;-57
2022/01/28 08:59:12;;;;;;;27.25;3.80;;;3.40;99.90;;;;;;5111251;28;20044;-57
2022/01/28 09:01:38;;;;;;;29.70;3.58;;;3.60;99.90;;;;;;5111248;28;20562;-57
2022/01/28 09:04:04;;;;;;;23.13;3.10;;;3.80;99.90;;;;;;5093135;28;20043;-58
2022/01/28 09:06:30;;;;;;;34.28;4.03;;;3.90;99.90;;;;;;5093071;28;20138;-58
2022/01/28 09:08:59;;;;;;;24.08;2.83;;;4.00;99.90;;;;;;5111007;28;20035;-58
2022/01/28 09:13:52;;;;;;;27.60;2.70;;;4.10;99.90;;;;;;5111025;28;20489;-58
2022/01/28 09:16:21;;;;;;;33.22;3.17;;;4.40;99.90;;;;;;5111288;28;20043;-58
2022/01/28 09:18:46;;;;;;;27.33;3.70;;;4.50;99.90;;;;;;5111107;28;20108;-58
2022/01/28 09:21:12;;;;;;;23.58;3.88;;;4.60;99.90;;;;;;5110950;28;20083;-58
2022/01/28 09:23:38;;;;;;;41.35;5.05;;;4.70;99.90;;;;;;5111371;28;20055;-57
2022/01/28 09:26:04;;;;;;;24.83;2.47;;;4.70;99.90;;;;;;5110939;28;20031;-57
2022/01/28 09:28:29;;;;;;;26.88;3.05;;;4.70;99.90;;;;;;5092622;28;20056;-58
2022/01/28 09:30:57;;;;;;;31.05;3.33;;;4.80;99.90;;;;;;5092848;28;20035;-58
2022/01/28 09:33:23;;;;;;;16.63;2.63;;;4.90;99.90;;;;;;5093132;28;20465;-58
2022/01/28 09:35:53;;;;;;;29.60;3.90;;;5.00;99.90;;;;;;5111299;28;20038;-58
2022/01/28 09:38:19;;;;;;;25.15;2.63;;;6.10;99.90;;;;;;5110530;28;20051;-58
2022/01/28 09:40:45;;;;;;;22.00;3.58;;;4.90;99.90;;;;;;5111209;28;20040;-58
2022/01/28 09:43:11;;;;;;;27.60;3.35;;;6.30;99.90;;;;;;5110777;28;20442;-58
2022/01/28 09:45:36;;;;;;;28.92;3.70;;;5.70;99.90;;;;;;5092365;28;20043;-58
2022/01/28 09:48:03;;;;;;;24.70;3.28;;;5.70;99.90;;;;;;5110578;28;20039;-58
2022/01/28 09:50:31;;;;;;;18.50;2.25;;;5.80;99.90;;;;;;5092287;28;20074;-58
2022/01/28 09:52:57;;;;;;;24.67;3.95;;;5.90;99.90;;;;;;5110650;28;20044;-57
2022/01/28 09:55:25;;;;;;;20.85;2.70;;;5.90;99.90;;;;;;5110776;28;20031;-58
2022/01/28 09:57:54;;;;;;;22.17;2.53;;;5.90;99.90;;;;;;5110996;28;20043;-58
2022/01/28 10:00:23;;;;;;;22.10;2.83;;;6.10;99.90;;;;;;5110639;28;20386;-58
2022/01/28 10:02:59;;;;;;;23.83;3.33;;;6.20;99.90;;;;;;5109973;28;20035;-58
2022/01/28 10:05:32;;;;;;;21.10;2.72;;;6.60;99.90;;;;;;5110575;28;20048;-58
2022/01/28 10:08:04;;;;;;;22.65;2.20;;;6.90;99.90;;;;;;5110716;28;20057;-58
2022/01/28 10:11:03;;;;;;;24.90;3.95;;;7.10;99.90;;;;;;5110589;28;20051;-58
2022/01/28 10:13:40;;;;;;;25.75;3.20;;;7.20;99.90;;;;;;5110518;28;20523;-58
2022/01/28 10:16:27;;;;;;;24.83;2.65;;;7.20;99.90;;;;;;5110216;28;20489;-58
2022/01/28 10:18:57;;;;;;;22.75;3.97;;;7.60;99.90;;;;;;5092256;28;20044;-58
2022/01/28 10:21:29;;;;;;;34.33;3.03;;;7.20;99.90;;;;;;5110295;28;20481;-58
2022/01/28 10:24:04;;;;;;;31.10;3.10;;;7.20;99.90;;;;;;5110780;28;20370;-58
2022/01/28 10:26:32;;;;;;;18.23;2.67;;;7.50;99.90;;;;;;5091994;28;20058;-58
2022/01/28 10:28:59;;;;;;;20.60;2.78;;;7.20;99.90;;;;;;5109993;28;20048;-58
2022/01/28 10:31:42;;;;;;;23.05;3.00;;;7.60;99.90;;;;;;5091535;28;20056;-58
2022/01/28 10:34:13;;;;;;;20.73;3.13;;;7.30;99.90;;;;;;5110261;28;20075;-58
2022/01/28 10:36:40;;;;;;;24.55;3.40;;;7.20;99.90;;;;;;5092070;28;20039;-58
2022/01/28 10:39:11;;;;;;;21.85;2.90;;;7.30;99.90;;;;;;5091803;28;20046;-58
2022/01/28 10:41:37;;;;;;;23.95;3.50;;;7.20;99.90;;;;;;5110420;28;20482;-58
2022/01/28 10:44:03;;;;;;;21.95;3.55;;;7.10;99.90;;;;;;5110319;28;20046;-58
2022/01/28 10:46:33;;;;;;;21.85;2.45;;;6.90;99.90;;;;;;5091831;28;20035;-58
2022/01/28 10:49:03;;;;;;;31.02;4.13;;;6.70;99.90;;;;;;5110223;28;20047;-58
2022/01/28 10:51:51;;;;;;;22.10;2.80;;;6.70;99.90;;;;;;5091655;28;20067;-58
2022/01/28 10:54:20;;;;;;;23.58;3.58;;;6.90;99.90;;;;;;5110268;28;20043;-58
2022/01/28 10:56:50;;;;;;;28.08;3.15;;;7.30;99.90;;;;;;5109881;28;20035;-58
2022/01/28 10:59:18;;;;;;;29.58;3.17;;;7.20;99.90;;;;;;5109803;28;20130;-58
2022/01/28 11:01:45;;;;;;;26.85;3.45;;;8.30;99.90;;;;;;5109878;28;20043;-58
2022/01/28 11:04:12;;;;;;;21.55;2.75;;;7.50;99.90;;;;;;5091061;28;20047;-58
2022/01/28 11:06:42;;;;;;;19.65;3.38;;;7.70;99.90;;;;;;5109674;28;20039;-58
2022/01/28 11:09:08;;;;;;;22.50;3.22;;;7.90;99.90;;;;;;5091343;28;20047;-58
2022/01/28 11:11:35;;;;;;;23.13;3.35;;;7.90;99.90;;;;;;5091010;28;20054;-58
2022/01/28 11:14:02;;;;;;;23.35;2.53;;;8.90;99.90;;;;;;5109753;28;20388;-58
2022/01/28 11:16:28;;;;;;;25.17;2.50;;;7.80;99.90;;;;;;5094418;28;20051;-58
2022/01/28 11:18:55;;;;;;;25.77;3.10;;;8.50;99.90;;;;;;5094702;28;20047;-58
2022/01/28 11:21:44;;;;;;;27.10;4.20;;;7.70;99.90;;;;;;5094648;28;20085;-58
2022/01/28 11:24:35;;;;;;;24.33;3.50;;;8.50;99.90;;;;;;5112845;28;20048;-58
2022/01/28 11:27:10;;;;;;;26.67;2.78;;;7.80;99.90;;;;;;5113225;28;20051;-58
2022/01/28 11:29:36;;;;;;;19.98;2.15;;;8.40;99.90;;;;;;5112792;28;20118;-58
2022/01/28 11:32:17;;;;;;;24.90;3.33;;;8.50;99.90;;;;;;5112907;28;20481;-58
2022/01/28 11:35:03;;;;;;;27.33;3.17;;;7.80;99.90;;;;;;5094794;28;20039;-58
2022/01/28 11:37:31;;;;;;;29.92;5.10;;;7.80;99.90;;;;;;5094287;28;20089;-58
2022/01/28 11:40:12;;;;;;;25.52;2.95;;;7.70;99.90;;;;;;5077208;28;20047;-58
2022/01/28 11:42:40;;;;;;;19.63;2.20;;;7.70;99.90;;;;;;5112553;28;20050;-58
2022/01/28 11:45:08;;;;;;;22.42;2.25;;;7.60;99.90;;;;;;5112822;28;20044;-58
2022/01/28 11:47:40;;;;;;;23.95;3.35;;;7.60;99.90;;;;;;5112388;28;20505;-58
2022/01/28 11:50:14;;;;;;;18.60;2.78;;;7.50;99.90;;;;;;5113123;28;20043;-58
2022/01/28 11:52:45;;;;;;;26.08;2.70;;;8.20;99.90;;;;;;5094509;28;20051;-58
2022/01/28 11:55:14;;;;;;;24.42;2.63;;;7.20;99.90;;;;;;5094270;28;20043;-58
2022/01/28 11:58:00;;;;;;;19.70;2.42;;;7.00;99.90;;;;;;5112651;28;20044;-58
2022/01/28 12:00:38;;;;;;;24.33;2.05;;;6.90;99.90;;;;;;5112511;28;20059;-58
2022/01/28 12:03:22;;;;;;;18.63;2.20;;;6.80;99.90;;;;;;5112992;28;20499;-58
2022/01/28 12:05:49;;;;;;;30.23;4.07;;;6.70;99.90;;;;;;5112963;28;20065;-58
2022/01/28 12:08:17;;;;;;;21.88;2.75;;;6.70;99.90;;;;;;5095185;28;20104;-58
2022/01/28 12:10:45;;;;;;;26.00;3.03;;;6.60;99.90;;;;;;5112903;28;20039;-58
2022/01/28 12:13:16;;;;;;;24.45;2.15;;;6.50;99.90;;;;;;5112536;28;20035;-58
2022/01/28 12:16:11;;;;;;;18.88;2.63;;;6.30;99.90;;;;;;5112258;28;20064;-58
2022/01/28 12:18:53;;;;;;;25.73;2.78;;;6.60;99.90;;;;;;5112297;28;20055;-58
2022/01/28 12:21:29;;;;;;;19.27;2.13;;;6.80;99.90;;;;;;5093920;28;20075;-58
2022/01/28 12:24:18;;;;;;;14.90;2.45;;;7.00;99.90;;;;;;5094376;28;20109;-58
2022/01/28 12:27:05;;;;;;;26.60;4.15;;;7.10;99.90;;;;;;5111402;28;20043;-58
2022/01/28 12:29:34;;;;;;;20.00;2.50;;;7.20;99.90;;;;;;5112122;28;20408;-58
2022/01/28 12:32:01;;;;;;;19.63;2.70;;;7.20;99.90;;;;;;5112015;28;20126;-58
2022/01/28 12:34:27;;;;;;;26.92;3.70;;;7.20;99.90;;;;;;5111881;28;20501;-58
2022/01/28 12:36:57;;;;;;;14.45;2.22;;;7.20;99.90;;;;;;5112202;28;20048;-58
2022/01/28 12:42:22;;;;;;;17.98;2.15;;;7.70;99.90;;;;;;5112497;28;20086;-58
2022/01/28 12:44:57;;;;;;;20.85;2.53;;;7.30;99.90;;;;;;5111954;28;20040;-58
2022/01/28 12:47:24;;;;;;;22.30;2.35;;;7.30;99.90;;;;;;5093476;28;20043;-58
2022/01/28 12:49:55;;;;;;;17.90;3.92;;;7.40;99.90;;;;;;5093129;28;20118;-58
2022/01/28 12:52:21;;;;;;;21.10;2.70;;;7.40;99.90;;;;;;5111679;28;20646;-58
2022/01/28 12:54:47;;;;;;;27.38;2.67;;;7.40;99.90;;;;;;5111225;28;20047;-58
2022/01/28 12:57:17;;;;;;;16.05;2.90;;;7.40;99.90;;;;;;5093338;28;20118;-58
2022/01/28 12:59:45;;;;;;;19.80;2.55;;;5.60;99.90;;;;;;5111410;28;20772;-58
2022/01/28 13:02:12;;;;;;;20.70;2.88;;;7.10;99.90;;;;;;5111337;28;20078;-58
2022/01/28 13:10:24;;;;;;;;;;;6.70;99.90;;;;;;5111556;28;20046;-58
2022/01/28 13:12:54;;;;;;;22.05;2.17;;;6.80;99.90;;;;;;5110807;28;19919;-58
2022/01/28 13:15:19;;;;;;;17.77;2.03;;;6.30;99.90;;;;;;5111645;28;20067;-58
2022/01/28 13:17:54;;;;;;;16.17;3.22;;;6.40;99.90;;;;;;5075558;28;20512;-58
2022/01/28 13:20:21;;;;;;;20.73;2.45;;;6.90;99.90;;;;;;5109577;28;20085;-58
2022/01/28 13:22:52;;;;;;;26.23;2.50;;;6.20;99.90;;;;;;5111002;28;20048;-58
2022/01/28 13:25:20;;;;;;;18.30;1.90;;;6.20;99.90;;;;;;5111472;28;20043;-58
2022/01/28 13:27:49;;;;;;;31.60;4.25;;;6.30;99.90;;;;;;5110621;28;20066;-59
2022/01/28 13:30:15;;;;;;;24.45;2.45;;;6.40;99.90;;;;;;5110900;28;20046;-58
2022/01/28 13:32:49;;;;;;;24.60;2.92;;;6.40;99.90;;;;;;5110727;28;20044;-58
2022/01/28 13:35:20;;;;;;;15.63;1.45;;;6.50;99.90;;;;;;5111112;28;20039;-58
2022/01/28 13:37:52;;;;;;;18.27;2.45;;;6.50;99.90;;;;;;5090980;28;20044;-58
2022/01/28 13:40:17;;;;;;;24.75;2.58;;;6.60;99.90;;;;;;5110840;28;20039;-58
2022/01/28 13:43:02;;;;;;;14.60;2.25;;;7.70;99.90;;;;;;5110615;28;20048;-58
2022/01/28 13:45:45;;;;;;;22.83;3.30;;;6.50;99.90;;;;;;5092189;28;20070;-58
2022/01/28 13:48:20;;;;;;;18.75;2.25;;;6.60;99.90;;;;;;5092020;28;20047;-58
2022/01/28 13:50:48;;;;;;;19.42;2.47;;;6.60;99.90;;;;;;5110569;28;20047;-58
2022/01/28 13:55:53;;;;;;;14.50;1.75;;;7.70;99.90;;;;;;5110797;28;20118;-58
2022/01/28 13:58:20;;;;;;;16.45;1.67;;;6.50;99.90;;;;;;5110425;28;20040;-58
2022/01/28 14:00:50;;;;;;;23.27;2.53;;;7.60;99.90;;;;;;5110105;28;20516;-58
2022/01/28 14:03:27;;;;;;;18.83;2.25;;;6.50;99.90;;;;;;5110280;28;20047;-58
2022/01/28 14:06:00;;;;;;;31.02;3.25;;;6.50;99.90;;;;;;5091703;28;20408;-58
2022/01/28 14:08:53;;;;;;;20.40;2.08;;;6.50;99.90;;;;;;5110642;28;20055;-58
2022/01/28 14:11:27;;;;;;;16.92;2.22;;;6.50;99.90;;;;;;5110176;28;20071;-58
2022/01/28 14:14:22;;;;;;;17.27;1.77;;;6.60;99.90;;;;;;5092034;28;20062;-58
2022/01/28 14:16:52;;;;;;;20.90;2.78;;;6.60;99.90;;;;;;5109949;28;20374;-58
2022/01/28 14:19:18;;;;;;;17.70;1.95;;;6.50;99.90;;;;;;5110350;28;20049;-58
2022/01/28 14:21:45;;;;;;;19.15;2.13;;;6.50;99.90;;;;;;5091744;28;20051;-58
2022/01/28 14:24:15;;;;;;;15.32;1.55;;;6.50;99.90;;;;;;5110405;28;20039;-58
2022/01/28 14:26:44;;;;;;;25.77;3.50;;;6.80;99.90;;;;;;5092133;28;20457;-58
2022/01/28 14:31:55;;;;;;;21.27;2.40;;;7.10;99.90;;;;;;5091747;28;20095;-58